createdAt,value
2023-04-18T00:00:24.113Z,102830.19
2023-04-18T00:02:55.010Z,102825.63
2023-04-18T00:05:21.636Z,102834.63
2023-04-18T00:07:48.205Z,102771.28
2023-04-18T00:10:14.675Z,102804.41
2023-04-18T00:12:41.140Z,102842.06
2023-04-18T00:15:11.541Z,102801.09
2023-04-18T00:17:38.472Z,102789.47
2023-04-18T00:20:07.865Z,102806.66
2023-04-18T00:22:34.278Z,102794.84
2023-04-18T00:25:00.726Z,102788.22
2023-04-18T00:27:27.128Z,102810.81
2023-04-18T00:29:53.555Z,102764.41
2023-04-18T00:32:20.131Z,102831.81
2023-04-18T00:34:46.538Z,102808.31
2023-04-18T00:37:12.928Z,102816.34
2023-04-18T00:39:39.421Z,102805.78
2023-04-18T00:42:06.134Z,102805.56
2023-04-18T00:44:32.638Z,102802.53
2023-04-18T00:46:59.092Z,102805.03
2023-04-18T00:49:26.115Z,102828.44
2023-04-18T00:51:53.523Z,102804.25
2023-04-18T00:54:20.159Z,102799.78
2023-04-18T00:56:46.869Z,102793.03
2023-04-18T00:59:13.439Z,102804.53
2023-04-18T01:01:40.166Z,102786.59
2023-04-18T01:04:08.053Z,102793.91
2023-04-18T01:06:35.431Z,102724.94
2023-04-18T01:09:02.196Z,102772.84
2023-04-18T01:11:28.674Z,102822.09
2023-04-18T01:14:02.862Z,102811.06
2023-04-18T01:16:30.082Z,102814.91
2023-04-18T01:18:57.010Z,102756.47
2023-04-18T01:21:23.488Z,102814.69
2023-04-18T01:23:50.880Z,102779.56
2023-04-18T01:26:17.306Z,102787.75
2023-04-18T01:28:43.706Z,102783.63
2023-04-18T01:31:10.330Z,102756.94
2023-04-18T01:33:37.282Z,102794.78
2023-04-18T01:36:03.806Z,102771.94
2023-04-18T01:38:30.281Z,102769.91
2023-04-18T01:40:56.832Z,102795.41
2023-04-18T01:43:23.253Z,102730.75
2023-04-18T01:45:49.629Z,102771.94
2023-04-18T01:48:16.027Z,102768.06
2023-04-18T01:50:42.494Z,102774.69
2023-04-18T01:53:08.915Z,102736.31
2023-04-18T01:55:35.496Z,102766.88
2023-04-18T01:58:01.913Z,102770.50
2023-04-18T02:00:28.377Z,102782.47
2023-04-18T02:02:54.976Z,102775.75
2023-04-18T02:05:21.499Z,102774.56
2023-04-18T02:07:49.985Z,102755.75
2023-04-18T02:10:16.397Z,102779.16
2023-04-18T02:12:43.036Z,102757.41
2023-04-18T02:15:09.903Z,102784.19
2023-04-18T02:17:36.821Z,102780.06
2023-04-18T02:20:03.831Z,102792.94
2023-04-18T02:22:30.263Z,102747.53
2023-04-18T02:24:56.683Z,102799.97
2023-04-18T02:27:23.090Z,102762.69
2023-04-18T02:29:49.534Z,102781.81
2023-04-18T02:32:15.966Z,102752.72
2023-04-18T02:34:42.409Z,102748.50
2023-04-18T02:37:08.784Z,102720.84
2023-04-18T02:39:35.177Z,102765.78
2023-04-18T02:42:01.638Z,102784.25
2023-04-18T02:44:28.194Z,102762.69
2023-04-18T02:46:54.609Z,102765.72
2023-04-18T02:49:21.054Z,102726.66
2023-04-18T02:51:47.503Z,102806.75
2023-04-18T02:54:14.069Z,102761.84
2023-04-18T02:56:42.496Z,102726.66
2023-04-18T02:59:08.931Z,102783.59
2023-04-18T03:01:35.362Z,102709.78
2023-04-18T03:04:01.858Z,102758.91
2023-04-18T03:06:28.403Z,102766.47
2023-04-18T03:08:55.521Z,102768.97
2023-04-18T03:11:22.436Z,102775.13
2023-04-18T03:13:48.873Z,102749.59
2023-04-18T03:16:15.461Z,102752.28
2023-04-18T03:18:41.944Z,102763.41
2023-04-18T03:21:08.417Z,102697.16
2023-04-18T03:23:34.890Z,102715.50
2023-04-18T03:26:01.470Z,102765.63
2023-04-18T03:28:27.930Z,102767.94
2023-04-18T03:30:54.400Z,102770.78
2023-04-18T03:33:20.816Z,102799.72
2023-04-18T03:35:47.262Z,102758.72
2023-04-18T03:38:13.637Z,102777.22
2023-04-18T03:40:40.072Z,102759.53
2023-04-18T03:43:06.495Z,102775.28
2023-04-18T03:45:33.199Z,102813.25
2023-04-18T03:47:59.682Z,102793.91
2023-04-18T03:50:26.093Z,102780.56
2023-04-18T03:52:52.735Z,102807.38
2023-04-18T03:55:19.738Z,102816.22
2023-04-18T03:57:46.724Z,102782.63
2023-04-18T04:00:13.954Z,102767.69
2023-04-18T04:02:40.816Z,102780.97
2023-04-18T04:05:08.109Z,102758.44
2023-04-18T04:07:34.627Z,102773.56
2023-04-18T04:10:01.370Z,102783.41
2023-04-18T04:12:27.859Z,102814.19
2023-04-18T04:14:54.612Z,102811.50
2023-04-18T04:17:21.310Z,102780.97
2023-04-18T04:19:49.222Z,102817.78
2023-04-18T04:22:16.392Z,102777.34
2023-04-18T04:24:42.954Z,102768.94
2023-04-18T04:27:11.049Z,102765.50
2023-04-18T04:29:39.074Z,102789.50
2023-04-18T04:32:06.570Z,102794.84
2023-04-18T04:34:34.465Z,102780.16
2023-04-18T04:37:30.362Z,102525.63
2023-04-18T04:40:34.010Z,102663.03
2023-04-18T04:46:21.691Z,102683.63
2023-04-18T04:48:57.119Z,102757.66
2023-04-18T04:51:25.274Z,102669.25
2023-04-18T04:54:08.297Z,102804.72
2023-04-18T04:56:44.547Z,102675.78
2023-04-18T04:59:19.884Z,102745.81
2023-04-18T05:01:50.991Z,102731.44
2023-04-18T05:04:20.070Z,102691.44
2023-04-18T05:06:52.800Z,102766.44
2023-04-18T05:09:26.536Z,102736.22
2023-04-18T05:12:01.927Z,102751.31
2023-04-18T05:14:34.817Z,102711.25
2023-04-18T05:17:10.983Z,102781.09
2023-04-18T05:19:44.532Z,102853.38
2023-04-18T05:25:07.344Z,102778.09
2023-04-18T05:27:36.858Z,102748.09
2023-04-18T05:30:09.408Z,102774.31
2023-04-18T05:32:41.508Z,102703.72
2023-04-18T05:35:19.795Z,102732.19
2023-04-18T05:37:56.326Z,102709.16
2023-04-18T05:40:33.875Z,102704.38
2023-04-18T05:43:03.664Z,102795.22
2023-04-18T05:45:34.630Z,102708.75
2023-04-18T05:48:08.654Z,102686.00
2023-04-18T05:50:36.657Z,102706.47
2023-04-18T05:53:12.085Z,102695.44
2023-04-18T05:56:19.879Z,102697.53
2023-04-18T06:05:25.504Z,102810.53
2023-04-18T06:30:50.774Z,102767.13
2023-04-18T06:48:26.613Z,102722.22
2023-04-18T06:52:01.943Z,102744.94
2023-04-18T07:01:01.900Z,102821.81
2023-04-18T07:03:29.626Z,102874.13
2023-04-18T07:06:01.043Z,102824.09
2023-04-18T07:08:36.193Z,102775.31
2023-04-18T07:11:16.832Z,102868.66
2023-04-18T07:13:53.680Z,102829.03
2023-04-18T07:16:32.249Z,102744.34
2023-04-18T07:19:34.339Z,102733.59
2023-04-18T07:22:10.459Z,102792.75
2023-04-18T07:24:45.136Z,102782.31
2023-04-18T07:27:14.339Z,102810.88
2023-04-18T07:29:43.175Z,102826.75
2023-04-18T07:32:25.609Z,102807.41
2023-04-18T07:35:00.048Z,102890.94
2023-04-18T07:37:36.517Z,102770.53
2023-04-18T07:40:14.363Z,102846.31
2023-04-18T07:43:03.754Z,102880.22
2023-04-18T07:45:40.207Z,102753.19
2023-04-18T07:48:13.542Z,102758.38
2023-04-18T07:50:42.255Z,102755.25
2023-04-18T07:53:16.477Z,102745.00
2023-04-18T07:56:08.161Z,102808.00
2023-04-18T07:58:44.961Z,102759.69
2023-04-18T08:01:18.233Z,102735.53
2023-04-18T08:04:05.327Z,102740.75
2023-04-18T08:06:39.250Z,102771.03
2023-04-18T08:09:10.200Z,102732.00
2023-04-18T08:11:45.972Z,102758.31
2023-04-18T08:14:16.640Z,102799.16
2023-04-18T08:17:01.042Z,102774.81
2023-04-18T08:19:36.318Z,102774.50
2023-04-18T08:22:10.956Z,102826.09
2023-04-18T08:25:03.313Z,102785.50
2023-04-18T08:27:39.822Z,102753.00
2023-04-18T08:30:21.575Z,102747.34
2023-04-18T08:35:48.404Z,102740.16
2023-04-18T08:38:15.047Z,102870.13
2023-04-18T08:40:48.007Z,102781.34
2023-04-18T08:43:20.935Z,102756.09
2023-04-18T08:45:51.101Z,102840.63
2023-04-18T08:48:23.273Z,102887.38
2023-04-18T08:51:05.787Z,102827.50
2023-04-18T08:53:37.027Z,102776.38
2023-04-18T08:56:06.761Z,102883.69
2023-04-18T08:58:43.980Z,102870.81
2023-04-18T09:01:14.397Z,102781.09
2023-04-18T09:03:55.075Z,102854.88
2023-04-18T09:06:27.718Z,102739.56
2023-04-18T09:09:09.419Z,102801.38
2023-04-18T09:11:43.941Z,102798.47
2023-04-18T09:14:33.684Z,102880.16
2023-04-18T09:17:08.663Z,102790.81
2023-04-18T09:19:58.010Z,102822.66
2023-04-18T09:23:08.133Z,102821.47
2023-04-18T09:38:11.339Z,102803.16
2023-04-18T09:40:38.153Z,102822.50
2023-04-18T09:43:21.324Z,102881.75
2023-04-18T09:45:50.663Z,102801.22
2023-04-18T09:48:17.266Z,102780.72
2023-04-18T09:50:44.520Z,102726.56
2023-04-18T09:56:37.249Z,102802.88
2023-04-18T09:59:08.811Z,102807.75
2023-04-18T10:01:39.286Z,102860.66
2023-04-18T10:04:09.229Z,102765.16
2023-04-18T10:06:42.136Z,102806.47
2023-04-18T10:09:11.599Z,102797.41
2023-04-18T10:11:38.430Z,102747.28
2023-04-18T10:14:08.252Z,102800.25
2023-04-18T10:16:38.408Z,102859.38
2023-04-18T10:19:29.646Z,102775.84
2023-04-18T10:22:06.933Z,102804.59
2023-04-18T10:24:53.230Z,102857.38
2023-04-18T10:27:55.274Z,102862.56
2023-04-18T10:30:41.849Z,102865.16
2023-04-18T10:36:03.150Z,102837.59
2023-04-18T10:38:30.560Z,102855.03
2023-04-18T10:41:33.092Z,102866.53
2023-04-18T10:44:08.960Z,102794.34
2023-04-18T10:46:38.379Z,102852.66
2023-04-18T10:49:27.398Z,102850.31
2023-04-18T10:51:58.568Z,102756.31
2023-04-18T10:54:55.241Z,102824.72
2023-04-18T10:57:25.146Z,102808.97
2023-04-18T10:59:52.524Z,102732.59
2023-04-18T11:02:49.300Z,102848.25
2023-04-18T11:05:20.730Z,102814.81
2023-04-18T11:07:48.938Z,102780.94
2023-04-18T11:10:23.998Z,102771.44
2023-04-18T11:12:51.075Z,102752.28
2023-04-18T11:15:22.888Z,102741.19
2023-04-18T11:18:01.012Z,102744.94
2023-04-18T11:20:28.742Z,102740.53
2023-04-18T11:22:57.701Z,102813.25
2023-04-18T11:25:37.015Z,102725.78
2023-04-18T11:28:04.430Z,102771.66
2023-04-18T11:30:43.899Z,102726.72
2023-04-18T11:33:11.823Z,102724.09
2023-04-18T11:35:43.119Z,102760.19
2023-04-18T11:38:12.588Z,102692.72
2023-04-18T11:40:41.748Z,102698.22
2023-04-18T11:43:08.344Z,102771.00
2023-04-18T11:45:34.996Z,102771.38
2023-04-18T11:48:05.717Z,102682.25
2023-04-18T11:50:36.861Z,102692.53
2023-04-18T11:53:12.553Z,102784.91
2023-04-18T11:55:44.161Z,102711.75
2023-04-18T11:58:29.585Z,102668.25
2023-04-18T12:00:56.165Z,102738.78
2023-04-18T12:03:25.622Z,102816.91
2023-04-18T12:06:00.789Z,102758.19
2023-04-18T12:08:27.430Z,102719.09
2023-04-18T12:11:02.506Z,102781.56
2023-04-18T12:13:36.767Z,102714.69
2023-04-18T12:16:03.420Z,102734.97
2023-04-18T12:18:31.502Z,102808.56
2023-04-18T12:21:02.337Z,102758.75
2023-04-18T12:23:35.780Z,102756.78
2023-04-18T12:26:15.325Z,102774.00
2023-04-18T12:28:52.566Z,102744.47
2023-04-18T12:31:19.238Z,102669.97
2023-04-18T12:33:54.506Z,102703.34
2023-04-18T12:36:23.498Z,102733.66
2023-04-18T12:38:53.723Z,102663.44
2023-04-18T12:41:23.153Z,102704.63
2023-04-18T12:43:49.998Z,102779.97
2023-04-18T12:48:03.812Z,102803.19
2023-04-18T12:50:48.237Z,102785.19
2023-04-18T13:01:53.074Z,102735.78
2023-04-18T13:08:19.019Z,102801.50
2023-04-18T13:11:51.327Z,102794.81
2023-04-18T13:15:11.941Z,102750.06
2023-04-18T13:28:37.186Z,102667.25
2023-04-18T13:31:27.976Z,102662.19
2023-04-18T13:34:32.237Z,102709.41
2023-04-18T13:37:22.041Z,102684.31
2023-04-18T13:44:04.579Z,102686.03
2023-04-18T13:51:01.880Z,102708.97
2023-04-18T13:54:13.345Z,102793.97
2023-04-18T13:57:18.400Z,102679.16
2023-04-18T13:59:57.006Z,102790.28
2023-04-18T14:03:02.984Z,102641.94
2023-04-18T14:05:54.577Z,102691.63
2023-04-18T14:14:37.934Z,102658.25
2023-04-18T14:20:57.299Z,102659.97
2023-04-18T14:23:30.000Z,102777.75
2023-04-18T14:33:20.081Z,102693.19
2023-04-18T14:36:44.416Z,102765.34
2023-04-18T14:39:58.303Z,102656.69
2023-04-18T14:46:55.988Z,102640.56
2023-04-18T14:57:06.793Z,102744.22
2023-04-18T14:59:33.261Z,102745.84
2023-04-18T15:01:59.811Z,102741.13
2023-04-18T15:04:26.612Z,102734.50
2023-04-18T15:06:53.181Z,102745.00
2023-04-18T15:09:19.641Z,102739.47
2023-04-18T15:11:46.043Z,102741.13
2023-04-18T15:14:12.753Z,102713.75
2023-04-18T15:16:40.792Z,102736.84
2023-04-18T15:19:07.413Z,102742.22
2023-04-18T15:21:33.898Z,102736.53
2023-04-18T15:24:00.525Z,102743.31
2023-04-18T15:26:27.101Z,102742.06
2023-04-18T15:28:54.620Z,102743.13
2023-04-18T15:31:21.733Z,102730.16
2023-04-18T15:33:48.353Z,102736.16
2023-04-18T15:36:14.737Z,102726.50
2023-04-18T15:38:42.428Z,102736.75
2023-04-18T15:41:08.903Z,102732.44
2023-04-18T15:43:35.385Z,102721.72
2023-04-18T15:46:01.922Z,102718.59
2023-04-18T15:48:30.216Z,102717.28
2023-04-18T15:50:56.782Z,102714.38
2023-04-18T15:53:23.243Z,102713.91
2023-04-18T15:55:50.692Z,102716.50
2023-04-18T15:58:17.300Z,102716.56
2023-04-18T16:00:44.307Z,102726.31
2023-04-18T16:03:10.964Z,102713.41
2023-04-18T16:05:37.635Z,102710.38
2023-04-18T16:08:04.150Z,102719.09
2023-04-18T16:10:30.719Z,102714.00
2023-04-18T16:12:59.390Z,102721.72
2023-04-18T16:15:25.961Z,102714.53
2023-04-18T16:17:52.398Z,102718.44
2023-04-18T16:20:19.049Z,102718.69
2023-04-18T16:22:45.534Z,102718.53
2023-04-18T16:25:11.961Z,102710.34
2023-04-18T16:27:38.451Z,102716.38
2023-04-18T16:30:05.402Z,102709.03
2023-04-18T16:32:31.908Z,102725.13
2023-04-18T16:34:58.442Z,102713.31
2023-04-18T16:37:24.942Z,102726.44
2023-04-18T16:39:51.406Z,102720.03
2023-04-18T16:42:17.830Z,102718.50
2023-04-18T16:44:47.246Z,102722.19
2023-04-18T16:47:13.694Z,102720.75
2023-04-18T16:49:41.150Z,102718.69
2023-04-18T16:52:07.564Z,102717.94
2023-04-18T16:54:33.969Z,102713.66
2023-04-18T16:57:00.758Z,102714.34
2023-04-18T16:59:28.351Z,102718.47
2023-04-18T17:01:54.984Z,102714.53
2023-04-18T17:04:21.740Z,102706.75
2023-04-18T17:06:49.775Z,102710.97
2023-04-18T17:09:18.041Z,102708.09
2023-04-18T17:11:44.432Z,102708.75
2023-04-18T17:14:11.534Z,102717.59
2023-04-18T17:16:39.490Z,102719.56
2023-04-18T17:19:06.189Z,102713.47
2023-04-18T17:21:33.954Z,102719.34
2023-04-18T17:24:03.553Z,102711.13
2023-04-18T17:26:30.491Z,102727.41
2023-04-18T17:28:57.005Z,102719.75
2023-04-18T17:31:23.639Z,102721.97
2023-04-18T17:33:52.759Z,102724.75
2023-04-18T17:36:19.174Z,102695.22
2023-04-18T17:38:48.927Z,102719.53
2023-04-18T17:41:16.613Z,102721.34
2023-04-18T17:43:43.848Z,102725.81
2023-04-18T17:46:11.285Z,102727.00
2023-04-18T17:48:37.921Z,102725.19
2023-04-18T17:51:04.512Z,102732.91
2023-04-18T17:53:32.263Z,102726.44
2023-04-18T17:55:59.375Z,102732.56
2023-04-18T17:58:26.604Z,102731.72
2023-04-18T18:00:53.418Z,102730.00
2023-04-18T18:03:20.087Z,102735.09
2023-04-18T18:05:48.033Z,102741.88
2023-04-18T18:08:14.671Z,102732.97
2023-04-18T18:10:41.262Z,102732.63
2023-04-18T18:13:07.703Z,102732.94
2023-04-18T18:15:34.189Z,102736.97
2023-04-18T18:18:01.953Z,102732.81
2023-04-18T18:20:29.238Z,102733.28
2023-04-18T18:22:55.708Z,102730.31
2023-04-18T18:25:22.196Z,102734.97
2023-04-18T18:27:49.403Z,102733.66
2023-04-18T18:30:16.076Z,102738.00
2023-04-18T18:32:42.529Z,102733.94
2023-04-18T18:35:09.355Z,102737.53
2023-04-18T18:37:35.830Z,102737.41
2023-04-18T18:40:04.777Z,102744.00
2023-04-18T18:42:31.196Z,102747.03
2023-04-18T18:44:57.823Z,102748.81
2023-04-18T18:47:24.275Z,102746.63
2023-04-18T18:49:50.851Z,102755.56
2023-04-18T18:52:17.298Z,102755.81
2023-04-18T18:54:43.685Z,102766.81
2023-04-18T18:57:10.148Z,102761.31
2023-04-18T18:59:36.626Z,102765.69
2023-04-18T19:02:03.356Z,102771.59
2023-04-18T19:04:30.073Z,102781.31
2023-04-18T19:06:56.662Z,102779.50
2023-04-18T19:09:23.196Z,102788.81
2023-04-18T19:11:49.684Z,102790.03
2023-04-18T19:14:16.199Z,102785.16
2023-04-18T19:16:42.696Z,102786.63
2023-04-18T19:19:10.154Z,102790.66
2023-04-18T19:21:36.690Z,102789.94
2023-04-18T19:24:03.194Z,102793.78
2023-04-18T19:26:29.726Z,102800.56
2023-04-18T19:28:56.174Z,102797.03
2023-04-18T19:31:22.676Z,102798.25
2023-04-18T19:33:50.084Z,102798.38
2023-04-18T19:36:16.740Z,102805.13
2023-04-18T19:38:43.135Z,102807.75
2023-04-18T19:41:09.658Z,102810.28
2023-04-18T19:43:38.283Z,102816.13
2023-04-18T19:46:04.820Z,102818.28
2023-04-18T19:48:31.423Z,102816.00
2023-04-18T19:50:57.829Z,102815.84
2023-04-18T19:53:24.380Z,102817.41
2023-04-18T19:55:50.935Z,102816.94
2023-04-18T19:58:37.823Z,102821.69
2023-04-18T20:01:06.026Z,102815.66
2023-04-18T20:03:34.045Z,102823.22
2023-04-18T20:06:01.425Z,102829.25
2023-04-18T20:08:28.256Z,102834.38
2023-04-18T20:10:54.773Z,102830.34
2023-04-18T20:13:21.278Z,102836.53
2023-04-18T20:15:47.874Z,102832.50
2023-04-18T20:18:14.321Z,102834.78
2023-04-18T20:20:41.349Z,102843.91
2023-04-18T20:23:07.777Z,102840.59
2023-04-18T20:25:34.404Z,102841.03
2023-04-18T20:28:01.015Z,102840.69
2023-04-18T20:30:27.482Z,102837.53
2023-04-18T20:32:54.008Z,102840.94
2023-04-18T20:35:20.520Z,102846.16
2023-04-18T20:37:46.998Z,102848.03
2023-04-18T20:40:13.435Z,102850.88
2023-04-18T20:42:39.873Z,102850.91
2023-04-18T20:45:10.837Z,102852.66
2023-04-18T20:47:37.416Z,102851.81
2023-04-18T20:50:04.170Z,102844.16
2023-04-18T20:52:30.629Z,102851.47
2023-04-18T20:54:57.116Z,102850.28
2023-04-18T20:57:23.502Z,102855.97
2023-04-18T20:59:49.978Z,102855.25
2023-04-18T21:02:16.582Z,102851.84
2023-04-18T21:04:43.295Z,102854.44
2023-04-18T21:07:09.766Z,102860.34
2023-04-18T21:09:36.486Z,102860.66
2023-04-18T21:12:03.638Z,102862.09
2023-04-18T21:14:30.070Z,102870.22
2023-04-18T21:16:57.639Z,102848.00
2023-04-18T21:19:24.545Z,102869.06
2023-04-18T21:21:51.058Z,102862.78
2023-04-18T21:24:17.990Z,102869.53
2023-04-18T21:26:44.408Z,102873.06
2023-04-18T21:29:11.073Z,102857.34
2023-04-18T21:31:37.701Z,102870.06
2023-04-18T21:34:05.290Z,102870.53
2023-04-18T21:36:32.164Z,102875.53
2023-04-18T21:39:00.933Z,102871.84
2023-04-18T21:41:27.720Z,102873.34
2023-04-18T21:43:54.288Z,102870.28
2023-04-18T21:46:20.876Z,102871.22
2023-04-18T21:48:47.768Z,102869.47
2023-04-18T21:51:15.737Z,102868.16
2023-04-18T21:53:42.270Z,102871.13
2023-04-18T21:56:08.858Z,102869.44
2023-04-18T21:58:35.474Z,102875.44
2023-04-18T22:01:02.138Z,102869.28
2023-04-18T22:03:29.117Z,102863.84
2023-04-18T22:05:56.634Z,102868.00
2023-04-18T22:08:25.714Z,102864.22
2023-04-18T22:10:57.632Z,102867.09
2023-04-18T22:13:25.249Z,102863.09
2023-04-18T22:15:51.819Z,102864.16
2023-04-18T22:18:18.997Z,102845.34
2023-04-18T22:20:46.836Z,102857.41
2023-04-18T22:23:13.953Z,102855.41
2023-04-18T22:25:40.916Z,102848.88
2023-04-18T22:28:07.553Z,102854.44
2023-04-18T22:30:34.187Z,102862.78
2023-04-18T22:33:00.752Z,102867.16
2023-04-18T22:35:27.356Z,102856.56
2023-04-18T22:37:53.847Z,102862.38
2023-04-18T22:40:20.357Z,102860.63
2023-04-18T22:42:46.892Z,102858.00
2023-04-18T22:45:13.623Z,102857.19
2023-04-18T22:47:40.358Z,102855.97
2023-04-18T22:50:07.874Z,102861.03
2023-04-18T22:52:34.399Z,102860.78
2023-04-18T22:55:02.261Z,102861.78
2023-04-18T22:57:28.752Z,102867.84
2023-04-18T22:59:55.218Z,102868.75
2023-04-18T23:02:21.725Z,102876.03
2023-04-18T23:04:49.364Z,102876.16
2023-04-18T23:07:15.925Z,102880.84
2023-04-18T23:09:42.436Z,102870.78
2023-04-18T23:12:08.884Z,102878.19
2023-04-18T23:14:35.818Z,102879.50
2023-04-18T23:17:02.617Z,102882.81
2023-04-18T23:19:29.130Z,102881.59
2023-04-18T23:21:55.548Z,102885.81
2023-04-18T23:24:21.982Z,102888.03
2023-04-18T23:26:48.451Z,102883.56
2023-04-18T23:29:15.008Z,102890.63
2023-04-18T23:31:41.522Z,102890.84
2023-04-18T23:34:08.006Z,102890.75
2023-04-18T23:36:34.436Z,102892.47
2023-04-18T23:39:00.898Z,102893.34
2023-04-18T23:41:27.331Z,102892.81
2023-04-18T23:43:53.896Z,102891.16
2023-04-18T23:46:20.320Z,102890.97
2023-04-18T23:48:46.762Z,102887.44
2023-04-18T23:51:13.245Z,102878.31
2023-04-18T23:53:39.655Z,102886.59
2023-04-18T23:56:06.426Z,102880.28
2023-04-18T23:58:32.903Z,102881.13
